sensor_id;sensor_type;location;lat;lon;timestamp;temperature;humidity
9837;DHT22;4957;51.412;6.724;2022-12-16T00:01:12;-4.70;97.30
9837;DHT22;4957;51.412;6.724;2022-12-16T00:03:38;-4.70;97.30
9837;DHT22;4957;51.412;6.724;2022-12-16T00:06:07;-4.70;97.20
9837;DHT22;4957;51.412;6.724;2022-12-16T00:08:35;-4.70;97.20
9837;DHT22;4957;51.412;6.724;2022-12-16T00:11:01;-4.80;97.20
9837;DHT22;4957;51.412;6.724;2022-12-16T00:13:28;-4.80;97.20
9837;DHT22;4957;51.412;6.724;2022-12-16T00:15:54;-4.80;97.20
9837;DHT22;4957;51.412;6.724;2022-12-16T00:18:20;-4.80;97.10
9837;DHT22;4957;51.412;6.724;2022-12-16T00:20:48;-4.80;97.10
9837;DHT22;4957;51.412;6.724;2022-12-16T00:23:14;-4.80;97.10
9837;DHT22;4957;51.412;6.724;2022-12-16T00:25:41;-4.80;97.20
9837;DHT22;4957;51.412;6.724;2022-12-16T00:28:08;-4.80;97.20
9837;DHT22;4957;51.412;6.724;2022-12-16T00:30:34;-4.80;97.20
9837;DHT22;4957;51.412;6.724;2022-12-16T00:32:59;-4.80;97.30
9837;DHT22;4957;51.412;6.724;2022-12-16T00:35:25;-4.80;97.20
9837;DHT22;4957;51.412;6.724;2022-12-16T00:37:51;-4.80;97.20
9837;DHT22;4957;51.412;6.724;2022-12-16T00:40:16;-4.90;97.20
9837;DHT22;4957;51.412;6.724;2022-12-16T00:42:42;-4.90;97.20
9837;DHT22;4957;51.412;6.724;2022-12-16T00:45:08;-4.90;97.20
9837;DHT22;4957;51.412;6.724;2022-12-16T00:47:34;-4.90;97.20
9837;DHT22;4957;51.412;6.724;2022-12-16T00:49:59;-4.90;97.20
9837;DHT22;4957;51.412;6.724;2022-12-16T00:52:26;-4.90;97.20
9837;DHT22;4957;51.412;6.724;2022-12-16T00:54:51;-4.90;97.30
9837;DHT22;4957;51.412;6.724;2022-12-16T00:57:17;-4.90;97.30
9837;DHT22;4957;51.412;6.724;2022-12-16T00:59:43;-4.90;97.60
9837;DHT22;4957;51.412;6.724;2022-12-16T01:02:09;-4.90;97.30
9837;DHT22;4957;51.412;6.724;2022-12-16T01:04:35;-5.00;97.30
9837;DHT22;4957;51.412;6.724;2022-12-16T01:07:01;-5.00;97.30
9837;DHT22;4957;51.412;6.724;2022-12-16T01:09:27;-5.00;97.40
9837;DHT22;4957;51.412;6.724;2022-12-16T01:11:53;-5.00;97.40
9837;DHT22;4957;51.412;6.724;2022-12-16T01:14:18;-5.00;97.40
9837;DHT22;4957;51.412;6.724;2022-12-16T01:16:44;-5.00;97.40
9837;DHT22;4957;51.412;6.724;2022-12-16T01:19:10;-5.00;97.40
9837;DHT22;4957;51.412;6.724;2022-12-16T01:21:37;-5.00;97.50
9837;DHT22;4957;51.412;6.724;2022-12-16T01:24:04;-5.00;97.50
9837;DHT22;4957;51.412;6.724;2022-12-16T01:26:30;-4.90;97.50
9837;DHT22;4957;51.412;6.724;2022-12-16T01:28:56;-5.00;97.50
9837;DHT22;4957;51.412;6.724;2022-12-16T01:31:23;-5.00;97.50
9837;DHT22;4957;51.412;6.724;2022-12-16T01:33:49;-4.90;97.60
9837;DHT22;4957;51.412;6.724;2022-12-16T01:36:15;-4.90;97.60
9837;DHT22;4957;51.412;6.724;2022-12-16T01:38:42;-4.90;97.60
9837;DHT22;4957;51.412;6.724;2022-12-16T01:41:09;-4.90;97.60
9837;DHT22;4957;51.412;6.724;2022-12-16T01:43:39;-4.90;97.60
9837;DHT22;4957;51.412;6.724;2022-12-16T01:48:52;-4.90;97.60
9837;DHT22;4957;51.412;6.724;2022-12-16T01:51:29;-4.90;97.60
9837;DHT22;4957;51.412;6.724;2022-12-16T01:53:59;-4.90;97.60
9837;DHT22;4957;51.412;6.724;2022-12-16T01:56:27;-4.90;97.60
9837;DHT22;4957;51.412;6.724;2022-12-16T01:58:55;-4.90;97.60
9837;DHT22;4957;51.412;6.724;2022-12-16T02:01:22;-4.90;97.60
9837;DHT22;4957;51.412;6.724;2022-12-16T02:03:48;-4.90;97.70
9837;DHT22;4957;51.412;6.724;2022-12-16T02:06:15;-4.90;97.70
9837;DHT22;4957;51.412;6.724;2022-12-16T02:08:40;-4.90;97.70
9837;DHT22;4957;51.412;6.724;2022-12-16T02:11:27;-4.90;97.80
9837;DHT22;4957;51.412;6.724;2022-12-16T02:27:53;-4.80;97.90
9837;DHT22;4957;51.412;6.724;2022-12-16T02:33:42;-4.80;97.90
9837;DHT22;4957;51.412;6.724;2022-12-16T02:36:21;-4.80;97.90
9837;DHT22;4957;51.412;6.724;2022-12-16T02:38:59;-4.80;97.90
9837;DHT22;4957;51.412;6.724;2022-12-16T02:41:31;-4.80;97.90
9837;DHT22;4957;51.412;6.724;2022-12-16T02:44:04;-4.70;98.00
9837;DHT22;4957;51.412;6.724;2022-12-16T02:46:32;-4.70;98.00
9837;DHT22;4957;51.412;6.724;2022-12-16T02:49:40;-4.70;97.90
9837;DHT22;4957;51.412;6.724;2022-12-16T02:51:59;-4.70;98.00
9837;DHT22;4957;51.412;6.724;2022-12-16T02:54:26;-4.70;98.00
9837;DHT22;4957;51.412;6.724;2022-12-16T02:57:18;-4.70;98.00
9837;DHT22;4957;51.412;6.724;2022-12-16T02:59:59;-4.70;98.00
9837;DHT22;4957;51.412;6.724;2022-12-16T03:07:49;-4.70;98.00
9837;DHT22;4957;51.412;6.724;2022-12-16T03:10:18;-4.70;98.00
9837;DHT22;4957;51.412;6.724;2022-12-16T03:12:45;-4.70;97.90
9837;DHT22;4957;51.412;6.724;2022-12-16T03:15:14;-4.70;97.90
9837;DHT22;4957;51.412;6.724;2022-12-16T03:17:43;-4.80;98.00
9837;DHT22;4957;51.412;6.724;2022-12-16T03:20:23;-4.70;98.10
9837;DHT22;4957;51.412;6.724;2022-12-16T03:22:53;-4.70;98.10
9837;DHT22;4957;51.412;6.724;2022-12-16T03:25:20;-4.70;98.10
9837;DHT22;4957;51.412;6.724;2022-12-16T03:28:12;-4.70;98.10
9837;DHT22;4957;51.412;6.724;2022-12-16T03:30:46;-4.70;98.10
9837;DHT22;4957;51.412;6.724;2022-12-16T03:35:46;-4.70;98.10
9837;DHT22;4957;51.412;6.724;2022-12-16T03:38:14;-4.60;98.10
9837;DHT22;4957;51.412;6.724;2022-12-16T03:40:41;-4.60;98.00
9837;DHT22;4957;51.412;6.724;2022-12-16T03:43:10;-4.70;97.90
9837;DHT22;4957;51.412;6.724;2022-12-16T03:45:41;-4.70;98.00
9837;DHT22;4957;51.412;6.724;2022-12-16T03:48:09;-4.70;98.00
9837;DHT22;4957;51.412;6.724;2022-12-16T03:50:36;-4.70;97.90
9837;DHT22;4957;51.412;6.724;2022-12-16T03:53:03;-4.70;97.90
9837;DHT22;4957;51.412;6.724;2022-12-16T03:55:30;-4.70;97.90
9837;DHT22;4957;51.412;6.724;2022-12-16T03:57:55;-4.70;97.90
9837;DHT22;4957;51.412;6.724;2022-12-16T04:00:22;-4.60;97.90
9837;DHT22;4957;51.412;6.724;2022-12-16T04:02:48;-4.70;97.90
9837;DHT22;4957;51.412;6.724;2022-12-16T04:05:14;-4.60;97.90
9837;DHT22;4957;51.412;6.724;2022-12-16T04:07:40;-4.70;97.80
9837;DHT22;4957;51.412;6.724;2022-12-16T04:10:06;-4.70;97.80
9837;DHT22;4957;51.412;6.724;2022-12-16T04:12:32;-4.70;97.80
9837;DHT22;4957;51.412;6.724;2022-12-16T04:15:16;-4.70;97.90
9837;DHT22;4957;51.412;6.724;2022-12-16T04:18:02;-4.70;97.90
9837;DHT22;4957;51.412;6.724;2022-12-16T04:20:51;-4.70;97.80
9837;DHT22;4957;51.412;6.724;2022-12-16T04:23:48;-4.70;97.80
9837;DHT22;4957;51.412;6.724;2022-12-16T04:26:33;-4.70;97.80
9837;DHT22;4957;51.412;6.724;2022-12-16T04:29:21;-4.70;97.80
9837;DHT22;4957;51.412;6.724;2022-12-16T04:31:47;-4.70;97.80
9837;DHT22;4957;51.412;6.724;2022-12-16T04:34:13;-4.70;97.80
9837;DHT22;4957;51.412;6.724;2022-12-16T04:36:52;-4.70;97.80
9837;DHT22;4957;51.412;6.724;2022-12-16T04:39:37;-4.70;97.90
9837;DHT22;4957;51.412;6.724;2022-12-16T04:42:21;-4.70;97.90
9837;DHT22;4957;51.412;6.724;2022-12-16T04:45:05;-4.70;98.00
9837;DHT22;4957;51.412;6.724;2022-12-16T04:47:49;-4.80;97.90
9837;DHT22;4957;51.412;6.724;2022-12-16T04:50:33;-4.80;97.90
9837;DHT22;4957;51.412;6.724;2022-12-16T04:53:17;-4.70;97.90
9837;DHT22;4957;51.412;6.724;2022-12-16T04:56:01;-4.70;97.90
9837;DHT22;4957;51.412;6.724;2022-12-16T04:58:45;-4.80;97.80
9837;DHT22;4957;51.412;6.724;2022-12-16T05:01:30;-4.80;97.90
9837;DHT22;4957;51.412;6.724;2022-12-16T05:04:14;-4.80;97.80
9837;DHT22;4957;51.412;6.724;2022-12-16T05:06:58;-4.90;97.60
9837;DHT22;4957;51.412;6.724;2022-12-16T05:09:42;-5.00;97.60
9837;DHT22;4957;51.412;6.724;2022-12-16T05:12:26;-5.00;97.60
9837;DHT22;4957;51.412;6.724;2022-12-16T05:15:11;-4.90;97.70
9837;DHT22;4957;51.412;6.724;2022-12-16T05:17:55;-5.00;97.60
9837;DHT22;4957;51.412;6.724;2022-12-16T05:20:39;-4.90;97.60
9837;DHT22;4957;51.412;6.724;2022-12-16T05:23:23;-4.90;97.60
9837;DHT22;4957;51.412;6.724;2022-12-16T05:26:07;-4.90;97.60
9837;DHT22;4957;51.412;6.724;2022-12-16T05:28:52;-4.90;97.70
9837;DHT22;4957;51.412;6.724;2022-12-16T05:31:46;-4.90;97.60
9837;DHT22;4957;51.412;6.724;2022-12-16T05:34:31;-4.90;97.60
9837;DHT22;4957;51.412;6.724;2022-12-16T05:37:15;-4.90;97.60
9837;DHT22;4957;51.412;6.724;2022-12-16T05:39:59;-4.90;97.60
9837;DHT22;4957;51.412;6.724;2022-12-16T05:42:46;-4.90;97.50
9837;DHT22;4957;51.412;6.724;2022-12-16T05:45:30;-5.00;97.40
9837;DHT22;4957;51.412;6.724;2022-12-16T05:48:15;-5.00;97.40
9837;DHT22;4957;51.412;6.724;2022-12-16T05:50:59;-5.00;97.40
9837;DHT22;4957;51.412;6.724;2022-12-16T05:53:43;-5.00;97.40
9837;DHT22;4957;51.412;6.724;2022-12-16T05:56:27;-5.00;97.40
9837;DHT22;4957;51.412;6.724;2022-12-16T05:59:11;-5.00;97.50
9837;DHT22;4957;51.412;6.724;2022-12-16T06:01:55;-5.00;97.40
9837;DHT22;4957;51.412;6.724;2022-12-16T06:04:40;-5.00;97.40
9837;DHT22;4957;51.412;6.724;2022-12-16T06:07:24;-5.00;97.30
9837;DHT22;4957;51.412;6.724;2022-12-16T06:10:08;-5.00;97.30
9837;DHT22;4957;51.412;6.724;2022-12-16T06:12:52;-5.00;97.30
9837;DHT22;4957;51.412;6.724;2022-12-16T06:15:36;-5.00;97.40
9837;DHT22;4957;51.412;6.724;2022-12-16T06:18:20;-5.00;97.40
9837;DHT22;4957;51.412;6.724;2022-12-16T06:21:04;-5.00;97.40
9837;DHT22;4957;51.412;6.724;2022-12-16T06:23:48;-5.10;97.40
9837;DHT22;4957;51.412;6.724;2022-12-16T06:26:33;-5.10;97.40
9837;DHT22;4957;51.412;6.724;2022-12-16T06:29:17;-5.10;97.40
9837;DHT22;4957;51.412;6.724;2022-12-16T06:32:01;-5.10;97.40
9837;DHT22;4957;51.412;6.724;2022-12-16T06:34:45;-5.10;97.40
9837;DHT22;4957;51.412;6.724;2022-12-16T06:37:29;-5.10;97.40
9837;DHT22;4957;51.412;6.724;2022-12-16T06:40:13;-5.10;97.40
9837;DHT22;4957;51.412;6.724;2022-12-16T06:42:58;-5.20;97.20
9837;DHT22;4957;51.412;6.724;2022-12-16T06:45:42;-5.20;97.20
9837;DHT22;4957;51.412;6.724;2022-12-16T06:48:26;-5.20;97.20
9837;DHT22;4957;51.412;6.724;2022-12-16T06:51:10;-5.20;97.20
9837;DHT22;4957;51.412;6.724;2022-12-16T06:53:54;-5.30;97.10
9837;DHT22;4957;51.412;6.724;2022-12-16T06:56:38;-5.20;97.10
9837;DHT22;4957;51.412;6.724;2022-12-16T06:59:22;-5.20;97.10
9837;DHT22;4957;51.412;6.724;2022-12-16T07:02:09;-5.20;97.20
9837;DHT22;4957;51.412;6.724;2022-12-16T07:04:54;-5.20;97.20
9837;DHT22;4957;51.412;6.724;2022-12-16T07:07:38;-5.30;97.20
9837;DHT22;4957;51.412;6.724;2022-12-16T07:10:22;-5.30;97.20
9837;DHT22;4957;51.412;6.724;2022-12-16T07:13:06;-5.20;97.40
9837;DHT22;4957;51.412;6.724;2022-12-16T07:15:50;-5.20;97.40
9837;DHT22;4957;51.412;6.724;2022-12-16T07:18:34;-5.20;97.40
9837;DHT22;4957;51.412;6.724;2022-12-16T07:21:18;-5.20;97.50
9837;DHT22;4957;51.412;6.724;2022-12-16T07:24:03;-5.20;97.50
9837;DHT22;4957;51.412;6.724;2022-12-16T07:26:47;-5.20;97.60
9837;DHT22;4957;51.412;6.724;2022-12-16T07:29:31;-5.20;97.70
9837;DHT22;4957;51.412;6.724;2022-12-16T07:32:15;-5.20;97.70
9837;DHT22;4957;51.412;6.724;2022-12-16T07:34:59;-5.10;97.80
9837;DHT22;4957;51.412;6.724;2022-12-16T07:37:43;-5.10;97.90
9837;DHT22;4957;51.412;6.724;2022-12-16T07:40:27;-5.10;97.90
9837;DHT22;4957;51.412;6.724;2022-12-16T07:43:12;-5.10;97.90
9837;DHT22;4957;51.412;6.724;2022-12-16T07:45:56;-5.00;98.00
9837;DHT22;4957;51.412;6.724;2022-12-16T07:48:40;-5.00;98.00
9837;DHT22;4957;51.412;6.724;2022-12-16T07:51:24;-5.00;98.10
9837;DHT22;4957;51.412;6.724;2022-12-16T07:54:08;-4.90;98.20
9837;DHT22;4957;51.412;6.724;2022-12-16T07:56:52;-4.90;98.30
9837;DHT22;4957;51.412;6.724;2022-12-16T07:59:37;-4.90;98.30
9837;DHT22;4957;51.412;6.724;2022-12-16T08:02:21;-4.80;98.40
9837;DHT22;4957;51.412;6.724;2022-12-16T08:05:05;-4.80;98.40
9837;DHT22;4957;51.412;6.724;2022-12-16T08:07:50;-4.70;98.50
9837;DHT22;4957;51.412;6.724;2022-12-16T08:10:36;-4.70;98.50
9837;DHT22;4957;51.412;6.724;2022-12-16T08:13:20;-4.60;98.60
9837;DHT22;4957;51.412;6.724;2022-12-16T08:16:05;-4.60;98.70
9837;DHT22;4957;51.412;6.724;2022-12-16T08:18:50;-4.50;98.70
9837;DHT22;4957;51.412;6.724;2022-12-16T08:21:34;-4.50;98.80
9837;DHT22;4957;51.412;6.724;2022-12-16T08:24:18;-4.50;98.80
9837;DHT22;4957;51.412;6.724;2022-12-16T08:27:02;-4.40;98.90
9837;DHT22;4957;51.412;6.724;2022-12-16T08:29:46;-4.40;99.00
9837;DHT22;4957;51.412;6.724;2022-12-16T08:32:30;-4.30;99.00
9837;DHT22;4957;51.412;6.724;2022-12-16T08:35:14;-4.30;99.00
9837;DHT22;4957;51.412;6.724;2022-12-16T08:37:59;-4.30;99.00
9837;DHT22;4957;51.412;6.724;2022-12-16T08:40:44;-4.20;99.10
9837;DHT22;4957;51.412;6.724;2022-12-16T08:43:32;-4.20;99.20
9837;DHT22;4957;51.412;6.724;2022-12-16T08:46:17;-4.20;99.20
9837;DHT22;4957;51.412;6.724;2022-12-16T08:49:01;-4.10;99.30
9837;DHT22;4957;51.412;6.724;2022-12-16T08:51:45;-4.10;99.30
9837;DHT22;4957;51.412;6.724;2022-12-16T08:54:30;-4.00;99.40
9837;DHT22;4957;51.412;6.724;2022-12-16T08:57:14;-4.00;99.40
9837;DHT22;4957;51.412;6.724;2022-12-16T08:59:58;-4.00;99.50
9837;DHT22;4957;51.412;6.724;2022-12-16T09:02:42;-3.90;99.60
9837;DHT22;4957;51.412;6.724;2022-12-16T09:05:26;-3.90;99.60
9837;DHT22;4957;51.412;6.724;2022-12-16T09:08:10;-3.80;99.60
9837;DHT22;4957;51.412;6.724;2022-12-16T09:10:58;-3.80;99.60
9837;DHT22;4957;51.412;6.724;2022-12-16T09:13:42;-3.70;99.70
9837;DHT22;4957;51.412;6.724;2022-12-16T09:16:27;-3.70;99.70
9837;DHT22;4957;51.412;6.724;2022-12-16T09:19:11;-3.70;99.70
9837;DHT22;4957;51.412;6.724;2022-12-16T09:21:55;-3.70;99.80
9837;DHT22;4957;51.412;6.724;2022-12-16T09:24:39;-3.60;99.90
9837;DHT22;4957;51.412;6.724;2022-12-16T09:27:23;-3.60;99.90
9837;DHT22;4957;51.412;6.724;2022-12-16T09:30:08;-3.60;99.90
9837;DHT22;4957;51.412;6.724;2022-12-16T09:32:52;-3.50;99.90
9837;DHT22;4957;51.412;6.724;2022-12-16T09:35:36;-3.50;99.90
9837;DHT22;4957;51.412;6.724;2022-12-16T09:38:21;-3.50;99.90
9837;DHT22;4957;51.412;6.724;2022-12-16T09:41:30;-3.40;99.90
9837;DHT22;4957;51.412;6.724;2022-12-16T09:50:20;-3.30;99.90
9837;DHT22;4957;51.412;6.724;2022-12-16T09:53:10;-3.30;99.90
9837;DHT22;4957;51.412;6.724;2022-12-16T09:55:56;-3.30;99.90
9837;DHT22;4957;51.412;6.724;2022-12-16T09:58:51;-3.20;99.90
9837;DHT22;4957;51.412;6.724;2022-12-16T10:01:37;-3.20;99.90
9837;DHT22;4957;51.412;6.724;2022-12-16T10:04:22;-3.10;99.90
9837;DHT22;4957;51.412;6.724;2022-12-16T10:07:20;-3.10;99.90
9837;DHT22;4957;51.412;6.724;2022-12-16T10:19:32;-2.90;99.90
9837;DHT22;4957;51.412;6.724;2022-12-16T10:22:42;-2.90;99.90
9837;DHT22;4957;51.412;6.724;2022-12-16T10:31:19;-2.80;99.90
9837;DHT22;4957;51.412;6.724;2022-12-16T10:34:15;-2.70;99.90
9837;DHT22;4957;51.412;6.724;2022-12-16T10:37:01;-2.70;99.90
9837;DHT22;4957;51.412;6.724;2022-12-16T10:39:55;-2.60;99.90
9837;DHT22;4957;51.412;6.724;2022-12-16T10:42:49;-2.60;99.90
9837;DHT22;4957;51.412;6.724;2022-12-16T10:45:41;-2.50;99.90
9837;DHT22;4957;51.412;6.724;2022-12-16T10:48:29;-2.50;99.90
9837;DHT22;4957;51.412;6.724;2022-12-16T10:51:16;-2.50;99.90
9837;DHT22;4957;51.412;6.724;2022-12-16T11:00:50;-2.30;99.90
9837;DHT22;4957;51.412;6.724;2022-12-16T11:03:36;-2.30;99.90
9837;DHT22;4957;51.412;6.724;2022-12-16T11:06:26;-2.30;99.90
9837;DHT22;4957;51.412;6.724;2022-12-16T11:09:31;-2.20;99.90
9837;DHT22;4957;51.412;6.724;2022-12-16T11:15:28;-2.20;99.90
9837;DHT22;4957;51.412;6.724;2022-12-16T11:18:17;-2.10;99.90
9837;DHT22;4957;51.412;6.724;2022-12-16T11:24:19;-2.10;99.90
9837;DHT22;4957;51.412;6.724;2022-12-16T11:27:11;-2.00;99.90
9837;DHT22;4957;51.412;6.724;2022-12-16T11:30:01;-2.00;99.90
9837;DHT22;4957;51.412;6.724;2022-12-16T11:33:24;-2.00;99.90
9837;DHT22;4957;51.412;6.724;2022-12-16T11:36:12;-1.90;99.90
9837;DHT22;4957;51.412;6.724;2022-12-16T11:38:57;-1.90;99.90
9837;DHT22;4957;51.412;6.724;2022-12-16T11:41:46;-1.80;99.90
9837;DHT22;4957;51.412;6.724;2022-12-16T11:44:41;-1.80;99.90
9837;DHT22;4957;51.412;6.724;2022-12-16T11:47:40;-1.70;99.90
9837;DHT22;4957;51.412;6.724;2022-12-16T11:50:27;-1.70;99.90
9837;DHT22;4957;51.412;6.724;2022-12-16T11:53:37;-1.60;99.90
9837;DHT22;4957;51.412;6.724;2022-12-16T11:56:31;-1.60;99.90
9837;DHT22;4957;51.412;6.724;2022-12-16T12:02:42;-1.50;99.90
9837;DHT22;4957;51.412;6.724;2022-12-16T12:08:58;-1.40;99.90
9837;DHT22;4957;51.412;6.724;2022-12-16T12:11:54;-1.40;99.90
9837;DHT22;4957;51.412;6.724;2022-12-16T12:18:19;-1.30;99.90
9837;DHT22;4957;51.412;6.724;2022-12-16T12:21:19;-1.30;99.90
9837;DHT22;4957;51.412;6.724;2022-12-16T12:27:20;-1.20;99.90
9837;DHT22;4957;51.412;6.724;2022-12-16T12:30:16;-1.10;99.90
9837;DHT22;4957;51.412;6.724;2022-12-16T12:36:14;-1.10;99.90
9837;DHT22;4957;51.412;6.724;2022-12-16T12:39:21;-1.00;99.90
9837;DHT22;4957;51.412;6.724;2022-12-16T12:42:30;-1.00;99.90
9837;DHT22;4957;51.412;6.724;2022-12-16T12:48:58;-0.90;99.90
9837;DHT22;4957;51.412;6.724;2022-12-16T12:54:50;-0.80;99.90
9837;DHT22;4957;51.412;6.724;2022-12-16T12:57:39;-0.80;99.90
9837;DHT22;4957;51.412;6.724;2022-12-16T13:00:24;-0.80;99.90
9837;DHT22;4957;51.412;6.724;2022-12-16T13:05:54;-0.70;99.90
9837;DHT22;4957;51.412;6.724;2022-12-16T13:11:32;-0.70;99.90
9837;DHT22;4957;51.412;6.724;2022-12-16T13:17:19;-0.60;99.90
9837;DHT22;4957;51.412;6.724;2022-12-16T13:26:16;-0.50;99.90
9837;DHT22;4957;51.412;6.724;2022-12-16T13:29:29;-0.50;99.90
9837;DHT22;4957;51.412;6.724;2022-12-16T13:32:19;-0.50;99.90
9837;DHT22;4957;51.412;6.724;2022-12-16T13:35:15;-0.40;99.90
9837;DHT22;4957;51.412;6.724;2022-12-16T13:38:20;-0.40;99.90
9837;DHT22;4957;51.412;6.724;2022-12-16T13:44:11;-0.40;99.90
9837;DHT22;4957;51.412;6.724;2022-12-16T13:46:56;-0.30;99.90
9837;DHT22;4957;51.412;6.724;2022-12-16T13:58:58;-0.20;99.90
9837;DHT22;4957;51.412;6.724;2022-12-16T14:01:48;-0.20;99.90
9837;DHT22;4957;51.412;6.724;2022-12-16T14:04:43;-0.20;99.90
9837;DHT22;4957;51.412;6.724;2022-12-16T14:07:31;-0.10;99.90
9837;DHT22;4957;51.412;6.724;2022-12-16T14:10:28;-0.10;99.90
9837;DHT22;4957;51.412;6.724;2022-12-16T14:19:56;-0.10;99.90
9837;DHT22;4957;51.412;6.724;2022-12-16T14:26:22;0.00;99.90
9837;DHT22;4957;51.412;6.724;2022-12-16T14:29:21;0.00;99.90
9837;DHT22;4957;51.412;6.724;2022-12-16T14:35:20;0.00;99.90
9837;DHT22;4957;51.412;6.724;2022-12-16T14:41:12;0.10;99.90
9837;DHT22;4957;51.412;6.724;2022-12-16T14:43:57;0.10;99.90
9837;DHT22;4957;51.412;6.724;2022-12-16T14:46:42;0.10;99.90
9837;DHT22;4957;51.412;6.724;2022-12-16T14:49:32;0.10;99.90
9837;DHT22;4957;51.412;6.724;2022-12-16T14:52:23;0.20;99.90
9837;DHT22;4957;51.412;6.724;2022-12-16T14:55:17;0.20;99.90
9837;DHT22;4957;51.412;6.724;2022-12-16T14:58:29;0.20;99.90
9837;DHT22;4957;51.412;6.724;2022-12-16T15:01:21;0.20;99.90
9837;DHT22;4957;51.412;6.724;2022-12-16T15:04:12;0.20;99.90
9837;DHT22;4957;51.412;6.724;2022-12-16T15:06:57;0.20;99.90
9837;DHT22;4957;51.412;6.724;2022-12-16T15:09:47;0.30;99.90
9837;DHT22;4957;51.412;6.724;2022-12-16T15:12:42;0.20;99.90
9837;DHT22;4957;51.412;6.724;2022-12-16T15:15:42;0.30;99.90
9837;DHT22;4957;51.412;6.724;2022-12-16T15:18:32;0.30;99.90
9837;DHT22;4957;51.412;6.724;2022-12-16T15:21:18;0.30;99.90
9837;DHT22;4957;51.412;6.724;2022-12-16T15:24:07;0.30;99.90
9837;DHT22;4957;51.412;6.724;2022-12-16T15:33:18;0.30;99.90
9837;DHT22;4957;51.412;6.724;2022-12-16T15:36:03;0.30;99.90
9837;DHT22;4957;51.412;6.724;2022-12-16T15:38:48;0.30;99.90
9837;DHT22;4957;51.412;6.724;2022-12-16T15:41:35;0.30;99.90
9837;DHT22;4957;51.412;6.724;2022-12-16T15:44:22;0.30;99.90
9837;DHT22;4957;51.412;6.724;2022-12-16T15:47:30;0.30;99.90
9837;DHT22;4957;51.412;6.724;2022-12-16T15:50:18;0.30;99.90
9837;DHT22;4957;51.412;6.724;2022-12-16T15:53:28;0.30;99.90
9837;DHT22;4957;51.412;6.724;2022-12-16T15:56:31;0.30;99.90
9837;DHT22;4957;51.412;6.724;2022-12-16T15:59:25;0.40;99.90
9837;DHT22;4957;51.412;6.724;2022-12-16T16:02:28;0.40;99.90
9837;DHT22;4957;51.412;6.724;2022-12-16T16:07:58;0.40;99.90
9837;DHT22;4957;51.412;6.724;2022-12-16T16:10:43;0.40;99.90
9837;DHT22;4957;51.412;6.724;2022-12-16T16:13:28;0.40;99.90
9837;DHT22;4957;51.412;6.724;2022-12-16T16:16:13;0.40;99.90
9837;DHT22;4957;51.412;6.724;2022-12-16T16:18:58;0.40;99.90
9837;DHT22;4957;51.412;6.724;2022-12-16T16:21:42;0.40;99.90
9837;DHT22;4957;51.412;6.724;2022-12-16T16:24:26;0.40;99.90
9837;DHT22;4957;51.412;6.724;2022-12-16T16:27:12;0.40;99.90
9837;DHT22;4957;51.412;6.724;2022-12-16T16:29:58;0.40;99.90
9837;DHT22;4957;51.412;6.724;2022-12-16T16:32:42;0.50;99.90
9837;DHT22;4957;51.412;6.724;2022-12-16T16:35:27;0.50;99.90
9837;DHT22;4957;51.412;6.724;2022-12-16T16:38:12;0.50;99.90
9837;DHT22;4957;51.412;6.724;2022-12-16T16:40:56;0.50;99.90
9837;DHT22;4957;51.412;6.724;2022-12-16T16:43:41;0.60;99.90
9837;DHT22;4957;51.412;6.724;2022-12-16T16:46:46;0.60;99.90
9837;DHT22;4957;51.412;6.724;2022-12-16T16:49:34;0.60;99.90
9837;DHT22;4957;51.412;6.724;2022-12-16T16:52:20;0.60;99.90
9837;DHT22;4957;51.412;6.724;2022-12-16T16:55:05;0.50;99.90
9837;DHT22;4957;51.412;6.724;2022-12-16T16:57:52;0.50;99.90
9837;DHT22;4957;51.412;6.724;2022-12-16T17:00:36;0.60;99.90
9837;DHT22;4957;51.412;6.724;2022-12-16T17:03:20;0.60;99.90
9837;DHT22;4957;51.412;6.724;2022-12-16T17:06:04;0.70;99.90
9837;DHT22;4957;51.412;6.724;2022-12-16T17:08:48;0.70;99.90
9837;DHT22;4957;51.412;6.724;2022-12-16T17:11:33;0.80;99.90
9837;DHT22;4957;51.412;6.724;2022-12-16T17:14:19;0.80;99.90
9837;DHT22;4957;51.412;6.724;2022-12-16T17:17:04;0.90;99.90
9837;DHT22;4957;51.412;6.724;2022-12-16T17:19:49;0.90;99.90
9837;DHT22;4957;51.412;6.724;2022-12-16T17:22:34;1.00;99.90
9837;DHT22;4957;51.412;6.724;2022-12-16T17:25:18;1.00;99.90
9837;DHT22;4957;51.412;6.724;2022-12-16T17:28:03;1.00;99.90
9837;DHT22;4957;51.412;6.724;2022-12-16T17:30:48;1.10;99.90
9837;DHT22;4957;51.412;6.724;2022-12-16T17:33:32;1.10;99.90
9837;DHT22;4957;51.412;6.724;2022-12-16T17:36:17;1.10;99.90
9837;DHT22;4957;51.412;6.724;2022-12-16T17:39:02;1.10;99.90
9837;DHT22;4957;51.412;6.724;2022-12-16T17:41:47;1.20;99.90
9837;DHT22;4957;51.412;6.724;2022-12-16T17:44:31;1.20;99.90
9837;DHT22;4957;51.412;6.724;2022-12-16T17:47:16;1.20;99.90
9837;DHT22;4957;51.412;6.724;2022-12-16T17:50:01;1.20;99.90
9837;DHT22;4957;51.412;6.724;2022-12-16T17:52:45;1.30;99.90
9837;DHT22;4957;51.412;6.724;2022-12-16T17:55:30;1.30;99.90
9837;DHT22;4957;51.412;6.724;2022-12-16T17:58:14;1.30;99.90
9837;DHT22;4957;51.412;6.724;2022-12-16T18:01:03;1.30;99.90
9837;DHT22;4957;51.412;6.724;2022-12-16T18:03:47;1.30;99.90
9837;DHT22;4957;51.412;6.724;2022-12-16T18:06:32;1.30;99.90
9837;DHT22;4957;51.412;6.724;2022-12-16T18:09:16;1.40;99.90
9837;DHT22;4957;51.412;6.724;2022-12-16T18:12:00;1.40;99.90
9837;DHT22;4957;51.412;6.724;2022-12-16T18:14:44;1.40;99.90
9837;DHT22;4957;51.412;6.724;2022-12-16T18:17:28;1.40;99.90
9837;DHT22;4957;51.412;6.724;2022-12-16T18:20:12;1.40;99.90
9837;DHT22;4957;51.412;6.724;2022-12-16T18:22:57;1.40;99.90
9837;DHT22;4957;51.412;6.724;2022-12-16T18:25:41;1.40;99.90
9837;DHT22;4957;51.412;6.724;2022-12-16T18:28:25;1.40;99.90
9837;DHT22;4957;51.412;6.724;2022-12-16T18:31:09;1.50;99.90
9837;DHT22;4957;51.412;6.724;2022-12-16T18:33:53;1.50;99.90
9837;DHT22;4957;51.412;6.724;2022-12-16T18:36:38;1.50;99.90
9837;DHT22;4957;51.412;6.724;2022-12-16T18:39:22;1.50;99.90
9837;DHT22;4957;51.412;6.724;2022-12-16T18:42:07;1.50;99.90
9837;DHT22;4957;51.412;6.724;2022-12-16T18:44:52;1.50;99.90
9837;DHT22;4957;51.412;6.724;2022-12-16T18:47:36;1.50;99.90
9837;DHT22;4957;51.412;6.724;2022-12-16T18:50:20;1.50;99.90
9837;DHT22;4957;51.412;6.724;2022-12-16T18:53:05;1.50;99.90
9837;DHT22;4957;51.412;6.724;2022-12-16T18:56:04;1.50;99.90
9837;DHT22;4957;51.412;6.724;2022-12-16T18:58:49;1.60;99.90
9837;DHT22;4957;51.412;6.724;2022-12-16T19:01:33;1.60;99.90
9837;DHT22;4957;51.412;6.724;2022-12-16T19:04:18;1.60;99.90
9837;DHT22;4957;51.412;6.724;2022-12-16T19:07:02;1.60;99.90
9837;DHT22;4957;51.412;6.724;2022-12-16T19:09:47;1.60;99.90
9837;DHT22;4957;51.412;6.724;2022-12-16T19:12:31;1.60;99.90
9837;DHT22;4957;51.412;6.724;2022-12-16T19:15:15;1.60;99.90
9837;DHT22;4957;51.412;6.724;2022-12-16T19:18:00;1.60;99.90
9837;DHT22;4957;51.412;6.724;2022-12-16T19:20:51;1.60;99.90
9837;DHT22;4957;51.412;6.724;2022-12-16T19:23:35;1.60;99.90
9837;DHT22;4957;51.412;6.724;2022-12-16T19:26:19;1.60;99.90
9837;DHT22;4957;51.412;6.724;2022-12-16T19:29:04;1.60;99.90
9837;DHT22;4957;51.412;6.724;2022-12-16T19:31:48;1.60;99.90
9837;DHT22;4957;51.412;6.724;2022-12-16T19:34:32;1.60;99.90
9837;DHT22;4957;51.412;6.724;2022-12-16T19:37:16;1.60;99.90
9837;DHT22;4957;51.412;6.724;2022-12-16T19:40:01;1.60;99.90
9837;DHT22;4957;51.412;6.724;2022-12-16T19:42:45;1.60;99.90
9837;DHT22;4957;51.412;6.724;2022-12-16T19:45:29;1.60;99.90
9837;DHT22;4957;51.412;6.724;2022-12-16T19:48:13;1.60;99.90
9837;DHT22;4957;51.412;6.724;2022-12-16T19:50:59;1.70;99.90
9837;DHT22;4957;51.412;6.724;2022-12-16T19:53:43;1.70;99.90
9837;DHT22;4957;51.412;6.724;2022-12-16T19:56:28;1.60;99.90
9837;DHT22;4957;51.412;6.724;2022-12-16T19:59:16;1.60;99.90
9837;DHT22;4957;51.412;6.724;2022-12-16T20:02:01;1.50;99.90
9837;DHT22;4957;51.412;6.724;2022-12-16T20:04:45;1.50;99.90
9837;DHT22;4957;51.412;6.724;2022-12-16T20:07:29;1.50;99.90